Time;durP1;ratioP1;P1;durP2;ratioP2;P2;SDS_P1;SDS_P2;PMS_P1;PMS_P2;Temp;Humidity;BMP_temperature;BMP_pressure;BME280_temperature;BME280_humidity;BME280_pressure;Samples;Min_cycle;Max_cycle;Signal;HPM_P1;HPM_P2
2022/03/04 00:01:21;;;;;;;0.30;0.20;;;;;;;3.79;58.25;95140.44;5136105;27;20505;-56
2022/03/04 00:03:50;;;;;;;0.30;0.20;;;;;;;3.66;58.93;95145.94;5135823;27;20419;-55
2022/03/04 00:06:18;;;;;;;0.30;0.20;;;;;;;3.27;60.23;95144.00;5136068;27;20502;-55
2022/03/04 00:08:47;;;;;;;0.30;0.20;;;;;;;3.43;61.00;95151.19;5135569;27;20446;-55
2022/03/04 00:11:15;;;;;;;0.47;0.47;;;;;;;3.68;60.13;95143.88;5135707;27;20514;-55
2022/03/04 00:13:43;;;;;;;0.30;0.20;;;;;;;3.49;60.21;95153.69;5135637;27;20496;-56
2022/03/04 00:16:13;;;;;;;0.30;0.20;;;;;;;3.39;60.77;95148.22;5135914;27;20458;-55
2022/03/04 00:18:42;;;;;;;0.30;0.20;;;;;;;3.50;60.48;95150.03;5135408;27;20464;-55
2022/03/04 00:21:10;;;;;;;0.30;0.20;;;;;;;3.55;60.07;95144.09;5135212;27;20473;-55
2022/03/04 00:23:38;;;;;;;0.30;0.20;;;;;;;3.54;60.61;95139.91;5135515;27;20473;-55
2022/03/04 00:26:07;;;;;;;0.30;0.20;;;;;;;3.56;59.32;95143.09;5135335;27;20462;-55
2022/03/04 00:28:35;;;;;;;1.03;1.03;;;;;;;3.60;58.58;95139.78;5135723;27;20461;-56
2022/03/04 00:31:04;;;;;;;1.50;1.40;;;;;;;3.24;60.15;95139.25;5135374;27;20918;-55
2022/03/04 00:33:34;;;;;;;0.30;0.20;;;;;;;2.79;64.28;95138.94;5135684;27;20855;-55
2022/03/04 00:36:03;;;;;;;0.30;0.20;;;;;;;3.06;63.37;95129.69;5135449;27;20479;-55
2022/03/04 00:38:31;;;;;;;0.30;0.20;;;;;;;3.24;62.40;95137.41;5135035;27;20498;-56
2022/03/04 00:41:00;;;;;;;0.23;0.20;;;;;;;2.87;63.38;95128.97;5135179;27;20426;-56
2022/03/04 00:43:29;;;;;;;0.30;0.20;;;;;;;3.00;63.96;95130.56;5135093;27;20522;-56
2022/03/04 00:45:57;;;;;;;0.30;0.20;;;;;;;2.66;67.11;95126.88;5135106;27;20422;-56
2022/03/04 00:48:25;;;;;;;1.37;1.27;;;;;;;2.50;68.96;95127.53;5134955;27;20427;-56
2022/03/04 00:50:56;;;;;;;0.30;0.30;;;;;;;2.67;68.90;95118.00;5135173;27;20442;-55
2022/03/04 00:53:24;;;;;;;0.97;0.97;;;;;;;2.42;70.25;95128.66;5134877;27;20487;-55
2022/03/04 00:55:52;;;;;;;0.37;0.37;;;;;;;2.79;68.18;95123.25;5134429;27;20515;-55
2022/03/04 00:58:21;;;;;;;0.30;0.20;;;;;;;2.97;67.69;95117.94;5134847;27;20486;-55
2022/03/04 01:00:49;;;;;;;0.30;0.23;;;;;;;3.01;66.30;95114.63;5134647;27;20422;-55
2022/03/04 01:03:18;;;;;;;2.43;0.37;;;;;;;3.03;64.99;95114.41;5134584;27;20422;-56
2022/03/04 01:05:47;;;;;;;0.30;0.20;;;;;;;3.04;65.70;95113.38;5134434;27;20478;-56
2022/03/04 01:08:17;;;;;;;0.47;0.47;;;;;;;3.12;65.06;95100.75;5134624;27;20454;-56
2022/03/04 01:10:46;;;;;;;0.30;0.20;;;;;;;3.02;65.00;95095.28;5134407;27;20418;-56
2022/03/04 01:13:15;;;;;;;0.30;0.20;;;;;;;2.73;66.53;95098.81;5134619;27;20431;-56
2022/03/04 01:15:43;;;;;;;0.30;0.20;;;;;;;2.72;66.76;95099.81;5134104;27;20517;-56
2022/03/04 01:18:12;;;;;;;1.43;1.43;;;;;;;3.17;64.85;95094.81;5134418;27;20901;-56
2022/03/04 01:20:40;;;;;;;0.30;0.20;;;;;;;3.40;63.06;95094.81;5134375;27;20481;-56
2022/03/04 01:23:09;;;;;;;0.30;0.20;;;;;;;3.37;62.69;95081.38;5134227;27;20521;-56
2022/03/04 01:25:39;;;;;;;0.30;0.20;;;;;;;3.15;63.43;95078.56;5134240;27;20477;-54
2022/03/04 01:28:08;;;;;;;0.30;0.20;;;;;;;3.41;61.74;95077.28;5134222;27;20452;-55
2022/03/04 01:30:36;;;;;;;0.30;0.20;;;;;;;3.53;60.46;95073.59;5133926;27;20869;-55
2022/03/04 01:33:05;;;;;;;0.30;0.20;;;;;;;3.68;58.07;95066.06;5134146;27;20452;-55
2022/03/04 01:35:33;;;;;;;0.30;0.20;;;;;;;3.14;56.85;95074.31;5133624;27;20463;-55
2022/03/04 01:38:21;;;;;;;0.30;0.20;;;;;;;3.02;59.51;95076.97;5134006;27;20975;-55
2022/03/04 01:40:51;;;;;;;0.30;0.20;;;;;;;3.37;57.73;95074.31;5134342;27;20503;-55
2022/03/04 01:43:19;;;;;;;0.30;0.20;;;;;;;3.37;57.63;95063.84;5134306;27;20499;-55
2022/03/04 01:45:48;;;;;;;0.90;0.90;;;;;;;3.44;58.66;95067.13;5133534;27;20501;-55
2022/03/04 01:48:18;;;;;;;2.00;0.50;;;;;;;3.22;59.35;95068.75;5133887;27;20495;-55
2022/03/04 01:50:48;;;;;;;0.30;0.20;;;;;;;3.30;60.20;95068.41;5133922;27;20458;-55
2022/03/04 01:53:18;;;;;;;0.30;0.20;;;;;;;3.20;59.49;95042.81;5133671;27;20890;-55
2022/03/04 01:55:46;;;;;;;0.67;0.67;;;;;;;3.28;59.00;95046.09;5134022;27;20419;-55
2022/03/04 01:58:16;;;;;;;0.30;0.20;;;;;;;3.18;59.70;95030.97;5133418;27;20517;-55
2022/03/04 02:00:44;;;;;;;0.30;0.30;;;;;;;3.28;58.68;95067.03;5133315;27;21007;-55
2022/03/04 02:03:13;;;;;;;0.30;0.20;;;;;;;3.40;59.55;95071.22;5133592;27;20426;-55
2022/03/04 02:05:42;;;;;;;0.40;0.40;;;;;;;3.32;59.81;95070.78;5133663;27;20423;-58
2022/03/04 02:08:10;;;;;;;0.30;0.20;;;;;;;3.44;60.14;95068.97;5133093;27;20414;-55
2022/03/04 02:10:39;;;;;;;0.30;0.20;;;;;;;3.39;61.55;95069.63;5133663;27;20486;-56
2022/03/04 02:13:07;;;;;;;0.83;0.83;;;;;;;3.43;60.60;95072.59;5133277;27;20514;-55
2022/03/04 02:15:37;;;;;;;0.30;0.20;;;;;;;3.22;61.04;95066.94;5133433;27;20476;-55
2022/03/04 02:18:11;;;;;;;0.27;0.20;;;;;;;3.36;59.87;95066.69;5133207;27;20991;-55
2022/03/04 02:20:42;;;;;;;0.30;0.20;;;;;;;3.33;59.74;95065.34;5133179;27;20457;-55
2022/03/04 02:23:13;;;;;;;0.30;0.20;;;;;;;3.37;60.22;95068.25;5132881;27;20561;-55
2022/03/04 02:25:43;;;;;;;0.30;0.20;;;;;;;3.23;59.97;95059.88;5133232;27;20838;-56
2022/03/04 02:28:11;;;;;;;0.30;0.20;;;;;;;3.46;60.45;95075.56;5132712;27;20489;-56
2022/03/04 02:30:40;;;;;;;0.30;0.30;;;;;;;3.31;61.90;95072.63;5133197;27;20454;-56
2022/03/04 02:33:09;;;;;;;0.30;0.20;;;;;;;3.46;61.24;95075.56;5132695;27;20462;-56
2022/03/04 02:35:38;;;;;;;0.30;0.20;;;;;;;3.38;61.66;95068.06;5132479;27;20483;-54
2022/03/04 02:38:06;;;;;;;0.50;0.50;;;;;;;3.36;62.56;95077.97;5133248;27;20468;-56
2022/03/04 02:40:36;;;;;;;0.40;0.40;;;;;;;3.48;62.49;95078.75;5132958;27;20458;-54
2022/03/04 02:43:05;;;;;;;0.30;0.30;;;;;;;3.20;64.50;95079.47;5132566;27;20854;-55
2022/03/04 02:45:34;;;;;;;0.30;0.20;;;;;;;3.27;64.76;95081.16;5132976;27;20462;-55
2022/03/04 02:48:02;;;;;;;9.63;3.07;;;;;;;3.09;65.03;95075.03;5132906;27;20914;-55
2022/03/04 02:50:31;;;;;;;0.30;0.20;;;;;;;2.77;66.81;95086.84;5133147;27;20875;-55
2022/03/04 02:52:59;;;;;;;0.30;0.20;;;;;;;2.67;65.51;95025.63;5132830;27;20930;-55
2022/03/04 02:55:28;;;;;;;0.40;0.40;;;;;;;3.17;64.69;95066.81;5133222;27;20498;-55
2022/03/04 02:57:58;;;;;;;0.30;0.30;;;;;;;3.23;64.30;95078.22;5132695;28;20983;-55
2022/03/04 03:00:26;;;;;;;0.63;0.30;;;;;;;2.93;64.97;95072.31;5132544;28;20563;-55
2022/03/04 03:02:55;;;;;;;0.20;0.20;;;;;;;3.26;63.93;95085.63;5132516;28;20434;-55
2022/03/04 03:05:23;;;;;;;0.30;0.20;;;;;;;3.32;64.11;95081.25;5132397;28;20427;-56
2022/03/04 03:07:52;;;;;;;0.30;0.20;;;;;;;3.27;64.67;95087.19;5132643;28;20923;-55
2022/03/04 03:10:20;;;;;;;0.30;0.20;;;;;;;3.37;63.31;95087.41;5132752;28;20418;-54
2022/03/04 03:12:49;;;;;;;0.30;0.20;;;;;;;3.25;64.23;95094.47;5132483;28;20427;-55
2022/03/04 03:15:19;;;;;;;0.30;0.20;;;;;;;3.33;64.55;95088.91;5132644;27;20487;-54
2022/03/04 03:17:47;;;;;;;0.30;0.30;;;;;;;3.45;63.15;95088.88;5136088;27;20427;-55
2022/03/04 03:20:15;;;;;;;0.20;0.20;;;;;;;3.42;62.56;95090.13;5136405;27;20925;-55
2022/03/04 03:22:44;;;;;;;0.53;0.53;;;;;;;3.26;61.20;95080.38;5136464;27;20497;-55
2022/03/04 03:25:13;;;;;;;0.30;0.20;;;;;;;3.22;63.39;95095.75;5135945;27;20513;-55
2022/03/04 03:27:42;;;;;;;0.30;0.20;;;;;;;3.22;62.59;95085.25;5136517;27;20461;-55
2022/03/04 03:30:12;;;;;;;1.07;0.97;;;;;;;3.19;63.13;95092.75;5136090;27;20429;-56
2022/03/04 03:32:41;;;;;;;0.30;0.30;;;;;;;3.18;61.15;95089.38;5135905;27;20497;-56
2022/03/04 03:35:10;;;;;;;0.40;0.27;;;;;;;3.16;61.04;95093.25;5136075;27;20929;-56
2022/03/04 03:37:39;;;;;;;0.30;0.30;;;;;;;3.07;61.86;95091.97;5136424;27;20454;-56
2022/03/04 03:40:10;;;;;;;0.30;0.30;;;;;;;1.64;62.72;94874.47;5136165;27;20553;-56
2022/03/04 03:42:39;;;;;;;0.30;0.20;;;;;;;3.14;65.21;95085.59;5136413;27;20487;-56
2022/03/04 03:45:10;;;;;;;0.23;0.20;;;;;;;3.06;65.47;95074.69;5136101;27;20430;-55
2022/03/04 03:47:39;;;;;;;0.30;0.20;;;;;;;3.09;65.90;95084.69;5135940;27;20427;-56
2022/03/04 03:50:11;;;;;;;0.30;0.20;;;;;;;3.11;66.67;95082.66;5136011;27;20460;-56
2022/03/04 03:52:40;;;;;;;0.30;0.20;;;;;;;3.04;67.32;95082.75;5135969;27;20509;-56
2022/03/04 03:55:09;;;;;;;0.30;0.20;;;;;;;2.95;69.23;95084.13;5136142;27;20487;-56
2022/03/04 03:57:37;;;;;;;0.30;0.20;;;;;;;3.11;67.07;95086.06;5136248;27;20418;-56
2022/03/04 04:00:07;;;;;;;0.30;0.20;;;;;;;3.20;65.80;95087.31;5135254;27;20549;-56
2022/03/04 04:02:36;;;;;;;0.30;0.20;;;;;;;2.91;64.40;95035.09;5135794;27;20938;-56
2022/03/04 04:05:05;;;;;;;0.23;0.20;;;;;;;3.27;64.72;95087.19;5135153;27;20433;-56
2022/03/04 04:07:35;;;;;;;0.50;0.50;;;;;;;2.73;64.89;94999.38;5135198;27;20942;-57
2022/03/04 04:10:04;;;;;;;1.00;0.97;;;;;;;3.27;65.90;95081.94;5135810;27;20456;-56
2022/03/04 04:12:32;;;;;;;0.33;0.30;;;;;;;3.26;65.87;95077.75;5135066;27;20475;-57
2022/03/04 04:15:00;;;;;;;1.23;0.50;;;;;;;3.27;66.13;95089.81;5135731;27;20462;-56
2022/03/04 04:17:29;;;;;;;0.30;0.20;;;;;;;3.18;67.28;95091.19;5135589;27;20434;-54
2022/03/04 04:19:57;;;;;;;0.30;0.20;;;;;;;3.33;66.34;95082.84;5134638;27;20930;-56
2022/03/04 04:22:26;;;;;;;0.30;0.20;;;;;;;3.25;66.07;95078.78;5135505;27;20486;-56
2022/03/04 04:24:55;;;;;;;0.30;0.20;;;;;;;3.30;66.20;95096.41;5135499;27;20491;-56
2022/03/04 04:27:24;;;;;;;0.30;0.20;;;;;;;3.24;67.31;95092.88;5135283;27;20427;-56
2022/03/04 04:29:52;;;;;;;0.30;0.30;;;;;;;3.23;67.83;95091.31;5134748;27;20430;-56
2022/03/04 04:32:20;;;;;;;0.30;0.20;;;;;;;3.36;66.46;95085.84;5135453;27;20423;-56
2022/03/04 04:34:49;;;;;;;1.20;1.20;;;;;;;3.46;66.82;95091.28;5135268;27;20465;-56
2022/03/04 04:37:17;;;;;;;0.30;0.20;;;;;;;3.24;66.61;95066.69;5135432;27;20497;-56
2022/03/04 04:39:46;;;;;;;0.30;0.20;;;;;;;3.31;67.77;95095.41;5135091;27;20994;-56
2022/03/04 04:42:16;;;;;;;0.40;0.40;;;;;;;3.34;67.61;95100.94;5135083;27;20514;-56
2022/03/04 04:44:44;;;;;;;0.27;0.20;;;;;;;3.22;68.89;95100.97;5135166;27;20501;-56
2022/03/04 04:47:13;;;;;;;0.30;0.20;;;;;;;3.32;68.32;95100.41;5135237;27;20433;-56
2022/03/04 04:49:41;;;;;;;0.30;0.20;;;;;;;3.24;68.57;95099.97;5133617;27;20430;-56
2022/03/04 04:52:10;;;;;;;0.27;0.20;;;;;;;3.14;68.78;95100.50;5134652;27;20497;-56
2022/03/04 04:54:38;;;;;;;0.30;0.20;;;;;;;3.17;69.02;95095.63;5135328;27;20502;-56
2022/03/04 04:57:07;;;;;;;0.30;0.20;;;;;;;3.20;69.54;95099.63;5134822;27;20451;-56
2022/03/04 04:59:37;;;;;;;0.40;0.40;;;;;;;2.88;67.67;95077.41;5134681;27;20457;-56
2022/03/04 05:02:06;;;;;;;2.77;0.63;;;;;;;3.05;65.58;95102.69;5134654;27;20994;-55
2022/03/04 05:04:35;;;;;;;0.47;0.47;;;;;;;3.01;64.03;95092.91;5134491;27;20433;-55
2022/03/04 05:07:03;;;;;;;0.40;0.30;;;;;;;3.22;63.64;95092.31;5134287;27;20426;-57
2022/03/04 05:09:32;;;;;;;0.97;0.97;;;;;;;3.10;64.50;95109.84;5134786;27;20508;-55
2022/03/04 05:12:00;;;;;;;1.70;1.70;;;;;;;3.05;70.47;95105.31;5134478;27;20471;-54
2022/03/04 05:14:29;;;;;;;0.40;0.20;;;;;;;3.03;68.31;95107.38;5134988;27;20443;-55
2022/03/04 05:16:58;;;;;;;0.30;0.30;;;;;;;3.11;65.95;95098.38;5133794;27;20474;-55
2022/03/04 05:19:27;;;;;;;0.30;0.20;;;;;;;2.96;71.24;95106.66;5134042;27;20502;-55
2022/03/04 05:21:55;;;;;;;0.80;0.80;;;;;;;2.65;76.45;95104.38;5134111;27;20597;-55
2022/03/04 05:24:23;;;;;;;0.30;0.20;;;;;;;2.81;75.69;95113.38;5133702;27;20513;-55
2022/03/04 05:26:55;;;;;;;0.27;0.20;;;;;;;2.97;75.69;95107.47;5134133;27;20525;-55
2022/03/04 05:29:23;;;;;;;0.30;0.20;;;;;;;3.16;73.07;95108.97;5134332;27;20862;-55
2022/03/04 05:31:51;;;;;;;0.30;0.20;;;;;;;3.20;71.17;95115.31;5133695;27;20505;-55
2022/03/04 05:34:21;;;;;;;0.30;0.20;;;;;;;3.22;70.80;95110.66;5133846;27;20993;-55
2022/03/04 05:36:50;;;;;;;0.30;0.20;;;;;;;3.14;71.54;95108.38;5134165;27;20495;-55
2022/03/04 05:39:18;;;;;;;0.43;0.43;;;;;;;3.14;73.90;95116.22;5132774;27;20427;-55
2022/03/04 05:41:47;;;;;;;0.30;0.20;;;;;;;3.22;72.78;95115.88;5133467;27;20508;-55
2022/03/04 05:44:15;;;;;;;0.40;0.30;;;;;;;3.33;71.99;95117.72;5133491;27;20510;-57
2022/03/04 05:46:45;;;;;;;0.40;0.40;;;;;;;3.36;70.24;95117.25;5133598;27;20857;-56
2022/03/04 05:49:13;;;;;;;0.20;0.20;;;;;;;3.19;70.31;95127.63;5133094;27;20454;-56
2022/03/04 05:51:43;;;;;;;0.47;0.47;;;;;;;3.41;69.30;95120.00;5133245;27;21054;-55
2022/03/04 05:54:12;;;;;;;0.40;0.30;;;;;;;3.52;67.02;95124.41;5133698;27;20513;-56
2022/03/04 05:56:40;;;;;;;0.47;0.47;;;;;;;3.62;65.83;95119.38;5133477;27;20875;-55
2022/03/04 05:59:09;;;;;;;0.30;0.20;;;;;;;3.56;65.92;95124.75;5133404;27;20448;-56
2022/03/04 06:01:37;;;;;;;0.97;0.83;;;;;;;3.60;66.12;95126.69;5133698;27;20466;-55
2022/03/04 06:04:06;;;;;;;0.47;0.40;;;;;;;3.62;65.29;95122.00;5133614;27;20435;-54
2022/03/04 06:06:34;;;;;;;0.30;0.20;;;;;;;3.58;65.27;95126.13;5133066;27;20488;-55
2022/03/04 06:09:04;;;;;;;1.03;1.03;;;;;;;3.39;63.97;95074.09;5132886;27;20505;-55
2022/03/04 06:11:32;;;;;;;0.37;0.37;;;;;;;3.80;64.05;95129.72;5133333;27;20461;-55
2022/03/04 06:14:03;;;;;;;0.80;0.80;;;;;;;3.92;64.00;95140.19;5132857;27;20517;-55
2022/03/04 06:16:31;;;;;;;0.77;0.77;;;;;;;4.17;63.81;95129.41;5133124;27;20930;-56
2022/03/04 06:19:00;;;;;;;0.30;0.30;;;;;;;4.31;62.25;95134.13;5133350;27;20856;-56
2022/03/04 06:21:28;;;;;;;1.93;1.10;;;;;;;4.37;62.55;95130.56;5132778;27;20493;-56
2022/03/04 06:23:57;;;;;;;0.50;0.50;;;;;;;4.47;60.74;95124.69;5132431;27;20455;-56
2022/03/04 06:26:26;;;;;;;0.83;0.83;;;;;;;4.47;59.59;95128.13;5132673;27;20518;-56
2022/03/04 06:28:55;;;;;;;1.17;0.87;;;;;;;4.82;59.33;95122.69;5132420;27;21047;-56
2022/03/04 06:31:23;;;;;;;0.30;0.20;;;;;;;4.95;59.01;95132.88;5133064;27;20503;-56
2022/03/04 06:33:52;;;;;;;0.60;0.60;;;;;;;4.68;60.21;95128.47;5132778;27;20926;-56
2022/03/04 06:36:20;;;;;;;0.47;0.47;;;;;;;4.53;57.50;95129.00;5132913;27;20426;-56
2022/03/04 06:38:50;;;;;;;0.50;0.50;;;;;;;4.17;58.43;95127.56;5132186;27;20452;-56
2022/03/04 06:41:18;;;;;;;1.90;0.53;;;;;;;4.52;57.47;95137.91;5132906;27;20486;-56
2022/03/04 06:43:49;;;;;;;0.40;0.30;;;;;;;4.43;57.48;95129.63;5132830;27;20517;-56
2022/03/04 06:46:17;;;;;;;2.90;1.53;;;;;;;4.24;59.22;95135.28;5132616;27;20418;-56
2022/03/04 06:48:46;;;;;;;1.53;1.43;;;;;;;4.25;60.08;95137.66;5132819;27;20442;-56
2022/03/04 06:51:14;;;;;;;0.53;0.53;;;;;;;4.21;59.67;95146.25;5132431;27;20510;-56
2022/03/04 06:53:42;;;;;;;0.40;0.40;;;;;;;4.22;60.68;95138.16;5132716;27;20479;-56
2022/03/04 06:56:11;;;;;;;0.30;0.30;;;;;;;4.69;59.78;95143.19;5132408;28;20999;-56
2022/03/04 06:58:40;;;;;;;0.40;0.40;;;;;;;5.18;58.36;95134.53;5133517;28;20932;-56
2022/03/04 07:01:09;;;;;;;5.87;1.43;;;;;;;5.35;56.06;95122.19;5132253;28;20469;-56
2022/03/04 07:03:38;;;;;;;3.60;3.50;;;;;;;5.25;54.99;95135.16;5132101;28;20513;-55
2022/03/04 07:06:07;;;;;;;0.50;0.50;;;;;;;5.64;53.06;95125.50;5132702;28;20423;-56
2022/03/04 07:08:37;;;;;;;2.63;2.37;;;;;;;5.81;51.55;95126.22;5132359;28;20457;-55
2022/03/04 07:11:05;;;;;;;0.50;0.50;;;;;;;5.71;50.76;95102.44;5132199;28;20958;-55
2022/03/04 07:13:34;;;;;;;1.53;1.53;;;;;;;5.64;50.19;95030.84;5132437;28;20934;-55
2022/03/04 07:16:03;;;;;;;3.43;1.23;;;;;;;6.28;50.36;95116.00;5132022;27;20961;-55
2022/03/04 07:18:32;;;;;;;3.20;3.00;;;;;;;6.65;48.52;95103.78;5132839;27;20525;-55
2022/03/04 07:21:02;;;;;;;1.43;1.43;;;;;;;7.92;46.18;95108.84;5132080;27;20429;-55
2022/03/04 07:23:31;;;;;;;1.00;1.00;;;;;;;8.79;43.19;95116.00;5131900;27;20473;-54
2022/03/04 07:25:59;;;;;;;2.00;1.90;;;;;;;9.36;41.68;95105.19;5132391;28;20427;-54
2022/03/04 07:28:27;;;;;;;0.97;0.97;;;;;;;9.13;41.63;95111.00;5132400;28;20479;-52
2022/03/04 07:30:56;;;;;;;8.33;1.90;;;;;;;9.48;40.84;95108.34;5131793;28;20941;-52
2022/03/04 07:33:25;;;;;;;0.60;0.60;;;;;;;9.26;40.30;95105.19;5131698;28;20525;-52
2022/03/04 07:35:55;;;;;;;1.20;1.20;;;;;;;9.11;40.69;95110.47;5131532;28;20462;-53
2022/03/04 07:38:23;;;;;;;0.80;0.60;;;;;;;9.62;39.01;95090.84;5131480;28;20522;-52
2022/03/04 07:40:52;;;;;;;0.67;0.67;;;;;;;10.50;39.37;95106.97;5131995;28;20475;-53
2022/03/04 07:43:22;;;;;;;0.40;0.20;;;;;;;10.00;39.02;95106.09;5131721;28;20466;-53
2022/03/04 07:45:51;;;;;;;3.70;2.10;;;;;;;9.05;39.84;95114.97;5132108;28;21135;-53
2022/03/04 07:48:20;;;;;;;7.97;1.03;;;;;;;8.68;40.14;95111.75;5132344;27;20953;-52
2022/03/04 07:50:48;;;;;;;1.77;1.60;;;;;;;9.94;39.43;95101.84;5132049;28;20418;-54
2022/03/04 07:53:19;;;;;;;2.40;1.13;;;;;;;9.53;38.65;95103.03;5132200;28;21091;-55
2022/03/04 07:55:48;;;;;;;1.53;1.43;;;;;;;9.32;38.85;95030.84;5132057;28;20534;-57
2022/03/04 07:58:17;;;;;;;0.50;0.40;;;;;;;9.79;38.65;95109.84;5132044;27;20423;-53
2022/03/04 08:00:45;;;;;;;0.43;0.43;;;;;;;9.13;40.43;95113.66;5132110;28;20434;-54
2022/03/04 08:03:34;;;;;;;0.73;0.73;;;;;;;9.54;39.63;95099.31;5135353;27;20856;-52
2022/03/04 08:06:03;;;;;;;0.60;0.60;;;;;;;9.62;40.48;95096.13;5135923;27;20426;-53
2022/03/04 08:08:34;;;;;;;0.40;0.33;;;;;;;9.67;40.44;95106.69;5135348;27;20422;-54
2022/03/04 08:11:04;;;;;;;0.60;0.60;;;;;;;11.25;38.75;95095.84;5136058;27;20430;-54
2022/03/04 08:13:34;;;;;;;1.40;1.30;;;;;;;10.02;39.31;95092.56;5135745;27;20497;-54
2022/03/04 08:16:02;;;;;;;1.20;1.10;;;;;;;10.98;37.29;95089.44;5135229;27;20441;-54
2022/03/04 08:18:31;;;;;;;5.00;1.20;;;;;;;11.46;39.21;95086.59;5135169;27;20487;-55
2022/03/04 08:21:01;;;;;;;0.97;0.90;;;;;;;11.58;35.99;95042.97;5136220;27;20430;-56
2022/03/04 08:23:33;;;;;;;0.50;0.40;;;;;;;11.53;36.27;95072.22;5136025;27;20485;-58
2022/03/04 08:26:03;;;;;;;1.07;1.07;;;;;;;12.56;35.39;95075.81;5135535;27;20437;-59
2022/03/04 08:28:33;;;;;;;0.60;0.50;;;;;;;13.51;33.59;95016.06;5135662;27;20419;-61
2022/03/04 08:31:10;;;;;;;0.60;0.53;;;;;;;12.22;34.30;95045.97;5135753;27;20426;-61
2022/03/04 08:33:41;;;;;;;1.10;1.10;;;;;;;11.53;34.55;94995.25;5135892;27;20479;-60
2022/03/04 08:36:11;;;;;;;0.70;0.63;;;;;;;12.56;33.75;95073.16;5135724;27;20419;-60
2022/03/04 08:38:41;;;;;;;3.70;0.70;;;;;;;12.95;32.45;95072.06;5134809;27;20422;-60
2022/03/04 08:41:10;;;;;;;1.50;1.50;;;;;;;13.56;32.82;95064.66;5135789;27;20458;-61
2022/03/04 08:43:39;;;;;;;1.50;1.40;;;;;;;14.05;31.35;95060.56;5134858;27;20462;-61
2022/03/04 08:46:11;;;;;;;0.40;0.40;;;;;;;15.40;29.41;95055.97;5135597;27;20794;-61
2022/03/04 08:48:39;;;;;;;2.20;1.00;;;;;;;14.75;28.70;95055.66;5135308;27;20502;-60
2022/03/04 08:51:08;;;;;;;2.60;1.27;;;;;;;15.37;28.33;95037.88;5136227;27;20466;-60
2022/03/04 08:53:37;;;;;;;1.63;1.43;;;;;;;13.10;30.28;95043.38;5135306;27;20429;-57
2022/03/04 08:56:07;;;;;;;1.03;0.93;;;;;;;12.93;30.75;95055.59;5135733;27;20501;-59
2022/03/04 08:58:36;;;;;;;0.40;0.30;;;;;;;12.88;31.08;95029.06;5135015;27;20846;-59
2022/03/04 09:01:05;;;;;;;0.80;0.60;;;;;;;12.39;30.99;94892.13;5136105;27;20887;-59
2022/03/04 09:03:37;;;;;;;0.40;0.30;;;;;;;13.51;30.19;95054.09;5136334;27;20476;-60
2022/03/04 09:06:05;;;;;;;0.40;0.30;;;;;;;13.98;29.53;95048.44;5134508;27;20958;-60
2022/03/04 09:08:34;;;;;;;0.63;0.63;;;;;;;14.75;28.44;95042.31;5135683;27;20477;-60
2022/03/04 09:11:03;;;;;;;1.07;1.07;;;;;;;13.54;29.62;95044.75;5134245;27;20431;-60
2022/03/04 09:13:33;;;;;;;0.50;0.50;;;;;;;14.12;28.32;95036.97;5131451;27;20491;-61
2022/03/04 09:16:02;;;;;;;0.60;0.60;;;;;;;13.43;30.00;95038.84;5131865;27;20460;-60
2022/03/04 09:18:30;;;;;;;0.50;0.50;;;;;;;14.24;29.66;95050.59;5131725;27;20465;-61
2022/03/04 09:20:59;;;;;;;0.47;0.40;;;;;;;14.36;29.30;95041.03;5132309;27;20427;-61
2022/03/04 09:23:28;;;;;;;0.53;0.33;;;;;;;14.26;29.82;95037.75;5132009;27;20553;-61
2022/03/04 09:25:56;;;;;;;0.97;0.97;;;;;;;14.74;29.47;95044.19;5132650;27;20458;-61
2022/03/04 09:28:25;;;;;;;0.80;0.60;;;;;;;13.75;29.94;95051.28;5132778;27;20419;-61
2022/03/04 09:30:54;;;;;;;1.07;1.07;;;;;;;13.15;31.69;95053.94;5133257;27;20469;-62
2022/03/04 09:33:23;;;;;;;0.70;0.70;;;;;;;13.34;31.38;95037.91;5133641;27;20438;-63
2022/03/04 09:35:51;;;;;;;0.80;0.80;;;;;;;13.01;31.47;95047.75;5133357;27;20462;-65
2022/03/04 09:38:20;;;;;;;0.60;0.50;;;;;;;13.84;30.86;95047.63;5133321;27;20961;-64
2022/03/04 09:40:49;;;;;;;0.63;0.63;;;;;;;13.98;30.36;95035.13;5133328;27;20431;-63
2022/03/04 09:43:18;;;;;;;1.30;1.20;;;;;;;13.59;30.88;95039.31;5133609;27;20494;-64
2022/03/04 09:45:47;;;;;;;0.40;0.40;;;;;;;13.72;30.15;95022.56;5133889;27;20457;-62
2022/03/04 09:48:18;;;;;;;3.40;0.70;;;;;;;12.30;30.92;95009.97;5133811;27;20414;-62
2022/03/04 09:50:48;;;;;;;0.50;0.30;;;;;;;11.93;32.56;95032.00;5133625;27;20509;-61
2022/03/04 09:53:18;;;;;;;0.67;0.67;;;;;;;13.56;30.83;95030.06;5133771;27;20951;-61
2022/03/04 09:55:47;;;;;;;0.50;0.47;;;;;;;13.80;29.93;95030.69;5133561;27;20518;-63
2022/03/04 09:58:20;;;;;;;0.57;0.57;;;;;;;14.82;29.72;95024.81;5133918;27;20419;-63
2022/03/04 10:00:48;;;;;;;0.40;0.30;;;;;;;14.92;30.09;95018.44;5133458;27;20431;-63
2022/03/04 10:03:43;;;;;;;0.80;0.80;;;;;;;13.87;32.13;95020.41;5133851;27;20942;-62
2022/03/04 10:06:12;;;;;;;1.47;0.60;;;;;;;14.78;29.18;95005.13;5133322;27;20431;-61
2022/03/04 10:08:42;;;;;;;1.17;0.40;;;;;;;14.37;29.10;94946.63;5133454;27;20441;-61
2022/03/04 10:11:12;;;;;;;1.57;1.37;;;;;;;14.83;28.70;95001.56;5133359;27;20491;-61
2022/03/04 10:13:45;;;;;;;0.90;0.80;;;;;;;15.49;28.80;94995.41;5132925;27;20518;-60
2022/03/04 10:16:22;;;;;;;8.97;0.50;;;;;;;15.69;28.04;94984.97;5133009;27;20465;-60
2022/03/04 10:19:11;;;;;;;0.40;0.37;;;;;;;15.01;28.80;94982.69;5133472;27;20430;-59
2022/03/04 10:21:51;;;;;;;0.60;0.40;;;;;;;16.34;27.57;94987.63;5132766;27;20577;-61
2022/03/04 10:24:22;;;;;;;0.43;0.33;;;;;;;16.72;26.87;94979.03;5131814;27;20508;-60
2022/03/04 10:27:00;;;;;;;3.27;0.47;;;;;;;17.33;26.73;94975.19;5132688;27;20937;-60
2022/03/04 10:29:35;;;;;;;0.60;0.60;;;;;;;17.15;26.42;94974.44;5133076;27;20452;-59
2022/03/04 10:32:15;;;;;;;0.40;0.40;;;;;;;17.85;25.31;94965.06;5132470;27;20426;-58
2022/03/04 10:34:53;;;;;;;1.20;0.53;;;;;;;19.39;25.13;94958.53;5132911;27;20960;-58
2022/03/04 10:37:24;;;;;;;1.50;1.20;;;;;;;19.24;24.02;94951.09;5133157;27;20483;-57
2022/03/04 10:40:01;;;;;;;1.97;1.47;;;;;;;17.02;26.18;94964.69;5133109;27;20419;-57
2022/03/04 10:42:49;;;;;;;1.63;1.60;;;;;;;16.88;26.10;94964.84;5132446;27;21172;-56
2022/03/04 10:45:23;;;;;;;1.47;1.17;;;;;;;18.40;25.41;94961.09;5132942;27;20490;-57
2022/03/04 10:47:53;;;;;;;0.60;0.60;;;;;;;19.30;24.31;94944.38;5132884;27;20418;-56
2022/03/04 10:50:31;;;;;;;1.23;0.63;;;;;;;19.63;24.44;94947.84;5132389;27;20483;-57
2022/03/04 10:53:03;;;;;;;0.90;0.90;;;;;;;20.02;23.40;94932.91;5132850;27;20458;-57
2022/03/04 10:55:35;;;;;;;0.50;0.40;;;;;;;20.36;24.52;94931.69;5132436;27;21120;-56
2022/03/04 10:58:06;;;;;;;1.80;0.77;;;;;;;20.76;22.92;94929.75;5132365;27;20430;-55
2022/03/04 11:00:38;;;;;;;0.90;0.90;;;;;;;17.32;25.69;94947.59;5132746;27;20505;-55
2022/03/04 11:03:06;;;;;;;0.70;0.60;;;;;;;17.53;26.02;94910.97;5132296;27;20534;-55
2022/03/04 11:05:37;;;;;;;1.80;0.73;;;;;;;18.55;25.26;94929.44;5132434;28;20442;-55
2022/03/04 11:08:06;;;;;;;2.20;2.10;;;;;;;19.12;24.33;94918.81;5132756;28;20427;-55
2022/03/04 11:10:35;;;;;;;2.83;0.93;;;;;;;18.74;24.43;94909.09;5132511;28;20459;-55
2022/03/04 11:13:05;;;;;;;0.97;0.97;;;;;;;17.41;25.20;94902.81;5132435;27;20458;-55
2022/03/04 11:15:34;;;;;;;0.57;0.40;;;;;;;15.95;27.18;94917.44;5131749;28;20529;-57
2022/03/04 11:18:06;;;;;;;0.73;0.73;;;;;;;16.03;27.69;94922.00;5132391;28;20457;-59
2022/03/04 11:20:36;;;;;;;0.50;0.40;;;;;;;16.55;27.55;94914.81;5131890;28;20510;-59
2022/03/04 11:23:08;;;;;;;0.60;0.53;;;;;;;15.27;29.34;94918.78;5131667;28;20471;-59
2022/03/04 11:25:39;;;;;;;0.50;0.40;;;;;;;14.78;29.88;94909.09;5132202;27;20589;-60
2022/03/04 11:28:12;;;;;;;0.40;0.30;;;;;;;15.03;29.54;94910.31;5131376;28;20506;-60
2022/03/04 11:30:44;;;;;;;1.10;0.57;;;;;;;14.48;30.58;94894.63;5132101;28;20466;-63
2022/03/04 11:33:16;;;;;;;0.50;0.50;;;;;;;14.34;30.12;94909.13;5132028;28;20818;-65
2022/03/04 11:36:06;;;;;;;0.93;0.50;;;;;;;14.64;30.54;94892.38;5132225;27;20514;-64
2022/03/04 11:39:10;;;;;;;0.43;0.40;;;;;;;14.65;30.28;94893.94;5135415;27;20655;-63
2022/03/04 11:42:11;;;;;;;2.27;2.17;;;;;;;14.48;30.25;94878.63;5135685;27;20468;-63
2022/03/04 11:44:56;;;;;;;2.67;0.60;;;;;;;14.42;30.01;94863.06;5135897;27;20472;-63
2022/03/04 11:47:27;;;;;;;2.50;2.40;;;;;;;14.69;30.08;94873.59;5135682;27;20431;-62
2022/03/04 11:49:55;;;;;;;0.77;0.77;;;;;;;15.40;29.23;94879.72;5135794;27;20503;-61
2022/03/04 11:52:29;;;;;;;1.80;0.40;;;;;;;14.95;29.49;94876.41;5135401;27;20426;-60